RLH6061 ZPPP-ZPJH
Flight info
| Callsign | RLH6061 |
|---|---|
| Flight time | 0h 50m |
| Altitude | 27600 |
| Route | ELAS9W/03 ELASU A581 BIDRU |
| Aircraft | B738/M-SDE2E3FGILRWXY/LB2 |
Departure
| Time | 2026-05-08 11:53 |
|---|---|
| Airport | Kunming Changshui International Airport (ZPPP) |
Arrival
| Time | 2026-05-08 12:43 |
|---|---|
| Airport | Xishuangbanna Gasa International Airport (ZPJH) |
| Time | Latitude | Longitude | Altitude | Speed | Heading |
|---|---|---|---|---|---|
| 2026-05-08 11:36 | 25.11344 | 102.93641 | 6898 ft | 0 kts | 219° |
| 2026-05-08 11:39 | 25.11354 | 102.93650 | 6898 ft | 3 kts | 223° |
| 2026-05-08 11:39 | 25.11368 | 102.93666 | 6898 ft | 3 kts | 231° |
| 2026-05-08 11:40 | 25.11379 | 102.93684 | 6898 ft | 3 kts | 240° |
| 2026-05-08 11:40 | 25.11389 | 102.93704 | 6898 ft | 3 kts | 250° |
| 2026-05-08 11:40 | 25.11394 | 102.93725 | 6898 ft | 3 kts | 263° |
| 2026-05-08 11:40 | 25.11394 | 102.93746 | 6897 ft | 3 kts | 286° |
| 2026-05-08 11:41 | 25.11389 | 102.93760 | 6897 ft | 1 kts | 309° |
| 2026-05-08 11:41 | 25.11388 | 102.93761 | 6897 ft | 0 kts | 309° |
| 2026-05-08 11:44 | 25.11395 | 102.93752 | 6897 ft | 3 kts | 309° |
| 2026-05-08 11:44 | 25.11413 | 102.93728 | 6897 ft | 5 kts | 309° |
| 2026-05-08 11:44 | 25.11440 | 102.93691 | 6898 ft | 7 kts | 308° |
| 2026-05-08 11:45 | 25.11475 | 102.93642 | 6898 ft | 9 kts | 308° |
| 2026-05-08 11:45 | 25.11514 | 102.93588 | 6899 ft | 9 kts | 308° |
| 2026-05-08 11:45 | 25.11558 | 102.93529 | 6899 ft | 11 kts | 309° |
| 2026-05-08 11:45 | 25.11612 | 102.93465 | 6899 ft | 12 kts | 314° |
| 2026-05-08 11:46 | 25.11670 | 102.93391 | 6900 ft | 13 kts | 310° |
| 2026-05-08 11:46 | 25.11755 | 102.93383 | 6900 ft | 14 kts | 13° |
| 2026-05-08 11:46 | 25.11798 | 102.93318 | 6900 ft | 13 kts | 242° |
| 2026-05-08 11:46 | 25.11728 | 102.93244 | 6901 ft | 15 kts | 219° |
| 2026-05-08 11:47 | 25.11642 | 102.93168 | 6901 ft | 16 kts | 216° |
| 2026-05-08 11:47 | 25.11549 | 102.93091 | 6902 ft | 17 kts | 217° |
| 2026-05-08 11:47 | 25.11453 | 102.93008 | 6902 ft | 18 kts | 219° |
| 2026-05-08 11:47 | 25.11358 | 102.92923 | 6903 ft | 17 kts | 219° |
| 2026-05-08 11:48 | 25.11260 | 102.92839 | 6916 ft | 19 kts | 218° |
| 2026-05-08 11:48 | 25.11155 | 102.92747 | 6903 ft | 20 kts | 218° |
| 2026-05-08 11:48 | 25.11043 | 102.92650 | 6904 ft | 21 kts | 218° |
| 2026-05-08 11:48 | 25.10927 | 102.92548 | 6910 ft | 22 kts | 218° |
| 2026-05-08 11:49 | 25.10807 | 102.92444 | 6918 ft | 22 kts | 217° |
| 2026-05-08 11:49 | 25.10693 | 102.92347 | 6912 ft | 20 kts | 218° |
| 2026-05-08 11:49 | 25.10587 | 102.92255 | 6911 ft | 19 kts | 218° |
| 2026-05-08 11:49 | 25.10481 | 102.92164 | 6916 ft | 20 kts | 218° |
| 2026-05-08 11:50 | 25.10373 | 102.92069 | 6907 ft | 17 kts | 218° |
| 2026-05-08 11:50 | 25.10303 | 102.92008 | 6907 ft | 13 kts | 218° |
| 2026-05-08 11:50 | 25.10226 | 102.91940 | 6918 ft | 15 kts | 218° |
| 2026-05-08 11:50 | 25.10148 | 102.91859 | 6921 ft | 16 kts | 248° |
| 2026-05-08 11:51 | 25.10165 | 102.91800 | 6920 ft | 2 kts | 310° |
| 2026-05-08 11:51 | 25.10177 | 102.91784 | 6921 ft | 3 kts | 310° |
| 2026-05-08 11:51 | 25.10196 | 102.91759 | 6908 ft | 5 kts | 310° |
| 2026-05-08 11:51 | 25.10226 | 102.91733 | 6914 ft | 6 kts | 336° |
| 2026-05-08 11:52 | 25.10270 | 102.91736 | 6912 ft | 7 kts | 30° |
| 2026-05-08 11:52 | 25.10334 | 102.91790 | 6908 ft | 25 kts | 39° |
| 2026-05-08 11:52 | 25.10611 | 102.92033 | 6909 ft | 76 kts | 38° |
| 2026-05-08 11:52 | 25.11152 | 102.92500 | 6903 ft | 120 kts | 38° |
| 2026-05-08 11:53 | 25.11907 | 102.93156 | 6900 ft | 155 kts | 38° |
| 2026-05-08 11:53 | 25.12821 | 102.93953 | 7046 ft | 174 kts | 38° |
| 2026-05-08 11:53 | 25.13805 | 102.94738 | 7512 ft | 181 kts | 27° |
| 2026-05-08 11:53 | 25.15028 | 102.95298 | 7708 ft | 200 kts | 22° |
| 2026-05-08 11:54 | 25.16337 | 102.95900 | 8089 ft | 208 kts | 24° |
| 2026-05-08 11:54 | 25.17688 | 102.96534 | 8441 ft | 212 kts | 24° |
| 2026-05-08 11:54 | 25.19069 | 102.97181 | 8827 ft | 219 kts | 23° |
| 2026-05-08 11:54 | 25.20496 | 102.97848 | 9168 ft | 228 kts | 23° |
| 2026-05-08 11:55 | 25.21986 | 102.98541 | 9471 ft | 237 kts | 23° |
| 2026-05-08 11:55 | 25.23533 | 102.99259 | 9807 ft | 246 kts | 23° |
| 2026-05-08 11:55 | 25.25155 | 103.00012 | 10118 ft | 259 kts | 23° |
| 2026-05-08 11:55 | 25.26872 | 103.00807 | 10377 ft | 277 kts | 22° |
| 2026-05-08 11:56 | 25.28713 | 103.01659 | 10681 ft | 295 kts | 22° |
| 2026-05-08 11:56 | 25.30686 | 103.02455 | 10969 ft | 308 kts | 9° |
| 2026-05-08 11:56 | 25.32846 | 103.02388 | 11350 ft | 315 kts | 342° |
| 2026-05-08 11:56 | 25.34742 | 103.01267 | 11792 ft | 315 kts | 315° |
| 2026-05-08 11:57 | 25.36136 | 102.99446 | 12259 ft | 310 kts | 304° |
| 2026-05-08 11:57 | 25.37436 | 102.97466 | 12700 ft | 317 kts | 303° |
| 2026-05-08 11:57 | 25.38723 | 102.95511 | 13137 ft | 319 kts | 304° |
| 2026-05-08 11:57 | 25.40034 | 102.93547 | 13609 ft | 317 kts | 304° |
| 2026-05-08 11:58 | 25.41320 | 102.91554 | 13765 ft | 319 kts | 302° |
| 2026-05-08 11:58 | 25.42583 | 102.89532 | 13773 ft | 318 kts | 302° |
| 2026-05-08 11:58 | 25.43841 | 102.87519 | 13770 ft | 318 kts | 302° |
| 2026-05-08 11:59 | 25.46337 | 102.83313 | 13940 ft | 343 kts | 291° |
| 2026-05-08 11:59 | 25.46859 | 102.80696 | 14199 ft | 354 kts | 270° |
| 2026-05-08 11:59 | 25.46435 | 102.78004 | 14738 ft | 358 kts | 249° |
| 2026-05-08 11:59 | 25.45122 | 102.75715 | 15439 ft | 360 kts | 229° |
| 2026-05-08 12:00 | 25.43119 | 102.74027 | 16045 ft | 366 kts | 215° |
| 2026-05-08 12:00 | 25.40908 | 102.72600 | 16632 ft | 370 kts | 213° |
| 2026-05-08 12:00 | 25.38646 | 102.71212 | 17221 ft | 373 kts | 213° |
| 2026-05-08 12:00 | 25.36372 | 102.69821 | 17897 ft | 374 kts | 213° |
| 2026-05-08 12:01 | 25.34099 | 102.68418 | 18503 ft | 375 kts | 214° |
| 2026-05-08 12:01 | 25.31822 | 102.66995 | 19024 ft | 377 kts | 214° |
| 2026-05-08 12:01 | 25.29537 | 102.65553 | 19485 ft | 380 kts | 214° |
| 2026-05-08 12:01 | 25.27231 | 102.64092 | 19897 ft | 383 kts | 214° |
| 2026-05-08 12:02 | 25.24917 | 102.62624 | 20379 ft | 384 kts | 214° |
| 2026-05-08 12:02 | 25.22593 | 102.61148 | 20845 ft | 387 kts | 214° |
| 2026-05-08 12:02 | 25.20255 | 102.59664 | 21316 ft | 389 kts | 214° |
| 2026-05-08 12:02 | 25.17902 | 102.58170 | 21757 ft | 392 kts | 214° |
| 2026-05-08 12:03 | 25.15528 | 102.56664 | 22146 ft | 395 kts | 214° |
| 2026-05-08 12:03 | 25.13146 | 102.55155 | 22659 ft | 395 kts | 214° |
| 2026-05-08 12:03 | 25.10758 | 102.53642 | 23131 ft | 396 kts | 214° |
| 2026-05-08 12:03 | 25.08365 | 102.52127 | 23524 ft | 398 kts | 214° |
| 2026-05-08 12:04 | 25.06003 | 102.50592 | 23880 ft | 400 kts | 216° |
| 2026-05-08 12:04 | 25.03621 | 102.48993 | 24182 ft | 402 kts | 216° |
| 2026-05-08 12:04 | 25.01237 | 102.47375 | 24519 ft | 403 kts | 216° |
| 2026-05-08 12:04 | 24.98848 | 102.45751 | 24875 ft | 405 kts | 216° |
| 2026-05-08 12:05 | 24.96438 | 102.44116 | 25184 ft | 407 kts | 216° |
| 2026-05-08 12:05 | 24.94016 | 102.42477 | 25438 ft | 409 kts | 216° |
| 2026-05-08 12:05 | 24.91581 | 102.40834 | 25756 ft | 410 kts | 216° |
| 2026-05-08 12:05 | 24.89150 | 102.39197 | 26096 ft | 411 kts | 216° |
| 2026-05-08 12:06 | 24.86708 | 102.37556 | 26522 ft | 409 kts | 216° |
| 2026-05-08 12:06 | 24.84285 | 102.35929 | 26988 ft | 406 kts | 216° |
| 2026-05-08 12:06 | 24.81876 | 102.34312 | 27361 ft | 405 kts | 216° |
| 2026-05-08 12:06 | 24.79461 | 102.32693 | 27639 ft | 406 kts | 216° |
| 2026-05-08 12:07 | 24.77039 | 102.31067 | 27806 ft | 409 kts | 216° |
| 2026-05-08 12:07 | 24.74639 | 102.29455 | 27780 ft | 409 kts | 216° |
| 2026-05-08 12:07 | 24.72215 | 102.27830 | 27794 ft | 407 kts | 216° |
| 2026-05-08 12:07 | 24.69793 | 102.26208 | 27774 ft | 407 kts | 216° |
| 2026-05-08 12:08 | 24.67377 | 102.24591 | 27778 ft | 407 kts | 216° |
| 2026-05-08 12:08 | 24.64959 | 102.22973 | 27781 ft | 407 kts | 216° |
| 2026-05-08 12:08 | 24.62543 | 102.21356 | 27762 ft | 406 kts | 216° |
| 2026-05-08 12:08 | 24.60130 | 102.19742 | 27762 ft | 406 kts | 216° |
| 2026-05-08 12:09 | 24.57720 | 102.18130 | 27755 ft | 406 kts | 216° |
| 2026-05-08 12:09 | 24.55310 | 102.16521 | 27758 ft | 405 kts | 216° |
| 2026-05-08 12:09 | 24.52893 | 102.14906 | 27758 ft | 406 kts | 216° |
| 2026-05-08 12:09 | 24.50479 | 102.13295 | 27756 ft | 406 kts | 216° |
| 2026-05-08 12:10 | 24.48059 | 102.11681 | 27755 ft | 407 kts | 216° |
| 2026-05-08 12:10 | 24.45665 | 102.10084 | 27742 ft | 408 kts | 216° |
| 2026-05-08 12:10 | 24.43235 | 102.08464 | 27742 ft | 409 kts | 216° |
| 2026-05-08 12:10 | 24.40799 | 102.06840 | 27734 ft | 410 kts | 216° |
| 2026-05-08 12:11 | 24.38360 | 102.05216 | 27736 ft | 410 kts | 216° |
| 2026-05-08 12:11 | 24.35918 | 102.03590 | 27737 ft | 411 kts | 216° |
| 2026-05-08 12:11 | 24.33468 | 102.01959 | 27728 ft | 413 kts | 216° |
| 2026-05-08 12:11 | 24.31010 | 102.00324 | 27720 ft | 413 kts | 215° |
| 2026-05-08 12:12 | 24.28546 | 101.98686 | 27705 ft | 413 kts | 215° |
| 2026-05-08 12:12 | 24.26086 | 101.97051 | 27708 ft | 413 kts | 215° |
| 2026-05-08 12:12 | 24.23631 | 101.95422 | 27706 ft | 412 kts | 215° |
| 2026-05-08 12:12 | 24.21212 | 101.93816 | 27696 ft | 412 kts | 215° |
| 2026-05-08 12:13 | 24.18731 | 101.92170 | 27701 ft | 411 kts | 215° |
| 2026-05-08 12:13 | 24.16289 | 101.90550 | 27687 ft | 411 kts | 215° |
| 2026-05-08 12:13 | 24.13880 | 101.88953 | 27688 ft | 410 kts | 215° |
| 2026-05-08 12:13 | 24.11434 | 101.87331 | 27675 ft | 410 kts | 215° |
| 2026-05-08 12:14 | 24.08996 | 101.85716 | 27675 ft | 409 kts | 215° |
| 2026-05-08 12:14 | 24.06563 | 101.84105 | 27680 ft | 409 kts | 215° |
| 2026-05-08 12:14 | 24.04130 | 101.82494 | 27681 ft | 409 kts | 215° |
| 2026-05-08 12:14 | 24.01688 | 101.80877 | 27669 ft | 410 kts | 215° |
| 2026-05-08 12:15 | 23.99248 | 101.79264 | 27669 ft | 410 kts | 215° |
| 2026-05-08 12:15 | 23.96804 | 101.77653 | 27664 ft | 411 kts | 215° |
| 2026-05-08 12:15 | 23.94346 | 101.76039 | 27651 ft | 412 kts | 215° |
| 2026-05-08 12:15 | 23.92718 | 101.74972 | 27660 ft | 411 kts | 215° |
| 2026-05-08 12:16 | 23.90264 | 101.73366 | 27567 ft | 409 kts | 215° |
| 2026-05-08 12:16 | 23.87854 | 101.71791 | 27294 ft | 399 kts | 215° |
| 2026-05-08 12:16 | 23.85498 | 101.70253 | 27036 ft | 390 kts | 215° |
| 2026-05-08 12:16 | 23.83190 | 101.68743 | 26799 ft | 386 kts | 215° |
| 2026-05-08 12:17 | 23.80882 | 101.67230 | 26563 ft | 386 kts | 215° |
| 2026-05-08 12:17 | 23.78575 | 101.65718 | 26323 ft | 386 kts | 215° |
| 2026-05-08 12:17 | 23.76268 | 101.64207 | 26093 ft | 385 kts | 215° |
| 2026-05-08 12:17 | 23.73970 | 101.62703 | 25858 ft | 384 kts | 214° |
| 2026-05-08 12:18 | 23.71680 | 101.61207 | 25627 ft | 383 kts | 214° |
| 2026-05-08 12:18 | 23.69397 | 101.59715 | 25404 ft | 382 kts | 214° |
| 2026-05-08 12:18 | 23.67118 | 101.58226 | 25174 ft | 381 kts | 214° |
| 2026-05-08 12:18 | 23.64840 | 101.56738 | 24957 ft | 381 kts | 214° |
| 2026-05-08 12:19 | 23.62567 | 101.55255 | 24714 ft | 379 kts | 214° |
| 2026-05-08 12:19 | 23.60306 | 101.53780 | 24496 ft | 378 kts | 214° |
| 2026-05-08 12:19 | 23.58088 | 101.52334 | 24285 ft | 376 kts | 214° |
| 2026-05-08 12:19 | 23.55846 | 101.50873 | 24070 ft | 375 kts | 214° |
| 2026-05-08 12:20 | 23.53607 | 101.49414 | 23849 ft | 374 kts | 214° |
| 2026-05-08 12:20 | 23.51375 | 101.47960 | 23642 ft | 373 kts | 214° |
| 2026-05-08 12:20 | 23.49149 | 101.46511 | 23367 ft | 372 kts | 214° |
| 2026-05-08 12:20 | 23.46936 | 101.45071 | 23117 ft | 370 kts | 214° |
| 2026-05-08 12:21 | 23.44725 | 101.43633 | 22860 ft | 369 kts | 214° |
| 2026-05-08 12:21 | 23.42528 | 101.42204 | 22592 ft | 368 kts | 214° |
| 2026-05-08 12:21 | 23.40334 | 101.40779 | 22340 ft | 366 kts | 213° |
| 2026-05-08 12:21 | 23.38149 | 101.39358 | 22090 ft | 365 kts | 214° |
| 2026-05-08 12:22 | 23.35968 | 101.37942 | 21830 ft | 365 kts | 214° |
| 2026-05-08 12:22 | 23.33792 | 101.36529 | 21586 ft | 363 kts | 213° |
| 2026-05-08 12:22 | 23.31622 | 101.35120 | 21340 ft | 363 kts | 213° |
| 2026-05-08 12:22 | 23.29445 | 101.33708 | 21096 ft | 363 kts | 213° |
| 2026-05-08 12:23 | 23.27276 | 101.32301 | 20858 ft | 363 kts | 213° |
| 2026-05-08 12:23 | 23.25111 | 101.30898 | 20621 ft | 362 kts | 213° |
| 2026-05-08 12:23 | 23.22946 | 101.29494 | 20383 ft | 362 kts | 213° |
| 2026-05-08 12:23 | 23.20788 | 101.28096 | 20142 ft | 361 kts | 213° |
| 2026-05-08 12:24 | 23.18632 | 101.26700 | 19898 ft | 360 kts | 213° |
| 2026-05-08 12:24 | 23.16482 | 101.25309 | 19680 ft | 360 kts | 213° |
| 2026-05-08 12:24 | 23.14327 | 101.23915 | 19447 ft | 359 kts | 213° |
| 2026-05-08 12:24 | 23.12178 | 101.22524 | 19212 ft | 359 kts | 213° |
| 2026-05-08 12:25 | 23.10032 | 101.21137 | 18991 ft | 359 kts | 213° |
| 2026-05-08 12:25 | 23.07917 | 101.19770 | 18770 ft | 359 kts | 213° |
| 2026-05-08 12:25 | 23.05773 | 101.18385 | 18546 ft | 358 kts | 213° |
| 2026-05-08 12:25 | 23.03789 | 101.17103 | 18344 ft | 358 kts | 213° |
| 2026-05-08 12:26 | 23.01650 | 101.15722 | 18095 ft | 358 kts | 213° |
| 2026-05-08 12:26 | 22.99507 | 101.14339 | 17841 ft | 357 kts | 213° |
| 2026-05-08 12:26 | 22.97376 | 101.12965 | 17586 ft | 356 kts | 213° |
| 2026-05-08 12:26 | 22.95251 | 101.11595 | 17340 ft | 355 kts | 213° |
| 2026-05-08 12:27 | 22.93127 | 101.10226 | 17086 ft | 354 kts | 213° |
| 2026-05-08 12:27 | 22.91012 | 101.08862 | 16837 ft | 353 kts | 213° |
| 2026-05-08 12:27 | 22.88900 | 101.07502 | 16583 ft | 351 kts | 213° |
| 2026-05-08 12:27 | 22.86806 | 101.06154 | 16338 ft | 349 kts | 213° |
| 2026-05-08 12:28 | 22.84720 | 101.04811 | 16108 ft | 348 kts | 213° |
| 2026-05-08 12:28 | 22.82646 | 101.03476 | 15849 ft | 346 kts | 213° |
| 2026-05-08 12:28 | 22.80582 | 101.02147 | 15616 ft | 344 kts | 213° |
| 2026-05-08 12:28 | 22.78529 | 101.00826 | 15388 ft | 343 kts | 213° |
| 2026-05-08 12:29 | 22.76477 | 100.99507 | 15148 ft | 342 kts | 213° |
| 2026-05-08 12:29 | 22.74430 | 100.98192 | 14921 ft | 341 kts | 213° |
| 2026-05-08 12:29 | 22.72403 | 100.96927 | 14803 ft | 342 kts | 208° |
| 2026-05-08 12:29 | 22.70107 | 100.96208 | 14783 ft | 347 kts | 191° |
| 2026-05-08 12:30 | 22.67721 | 100.95914 | 14587 ft | 344 kts | 188° |
| 2026-05-08 12:30 | 22.65363 | 100.95669 | 14368 ft | 337 kts | 188° |
| 2026-05-08 12:30 | 22.63048 | 100.95429 | 14134 ft | 331 kts | 188° |
| 2026-05-08 12:30 | 22.60785 | 100.95184 | 13878 ft | 324 kts | 189° |
| 2026-05-08 12:31 | 22.58557 | 100.94933 | 13562 ft | 320 kts | 189° |
| 2026-05-08 12:31 | 22.56347 | 100.94676 | 13176 ft | 318 kts | 189° |
| 2026-05-08 12:31 | 22.54153 | 100.94418 | 12817 ft | 316 kts | 189° |
| 2026-05-08 12:31 | 22.51969 | 100.94161 | 12451 ft | 315 kts | 188° |
| 2026-05-08 12:32 | 22.49788 | 100.93904 | 12085 ft | 315 kts | 188° |
| 2026-05-08 12:32 | 22.47618 | 100.93647 | 11726 ft | 314 kts | 189° |
| 2026-05-08 12:32 | 22.45548 | 100.92993 | 11340 ft | 309 kts | 211° |
| 2026-05-08 12:32 | 22.43912 | 100.91583 | 10998 ft | 304 kts | 229° |
| 2026-05-08 12:33 | 22.42523 | 100.89864 | 10660 ft | 302 kts | 231° |
| 2026-05-08 12:33 | 22.41170 | 100.88130 | 10305 ft | 301 kts | 231° |
| 2026-05-08 12:33 | 22.39818 | 100.86396 | 9966 ft | 301 kts | 231° |
| 2026-05-08 12:33 | 22.38473 | 100.84682 | 9605 ft | 301 kts | 231° |
| 2026-05-08 12:34 | 22.37115 | 100.82966 | 9237 ft | 300 kts | 230° |
| 2026-05-08 12:34 | 22.35758 | 100.81259 | 8961 ft | 296 kts | 230° |
| 2026-05-08 12:34 | 22.34439 | 100.79607 | 8924 ft | 283 kts | 230° |
| 2026-05-08 12:34 | 22.33178 | 100.78027 | 8864 ft | 273 kts | 230° |
| 2026-05-08 12:35 | 22.32052 | 100.76410 | 8649 ft | 268 kts | 245° |
| 2026-05-08 12:35 | 22.31415 | 100.74540 | 8469 ft | 262 kts | 251° |
| 2026-05-08 12:35 | 22.30839 | 100.72705 | 8251 ft | 254 kts | 251° |
| 2026-05-08 12:35 | 22.30272 | 100.70934 | 8062 ft | 250 kts | 250° |
| 2026-05-08 12:36 | 22.29709 | 100.69199 | 7901 ft | 240 kts | 250° |
| 2026-05-08 12:36 | 22.29163 | 100.67533 | 7705 ft | 231 kts | 248° |
| 2026-05-08 12:36 | 22.28229 | 100.66206 | 7450 ft | 220 kts | 210° |
| 2026-05-08 12:36 | 22.26797 | 100.65897 | 7243 ft | 209 kts | 172° |
| 2026-05-08 12:37 | 22.25393 | 100.66162 | 7059 ft | 202 kts | 169° |
| 2026-05-08 12:37 | 22.24026 | 100.66444 | 6829 ft | 198 kts | 168° |
| 2026-05-08 12:37 | 22.22697 | 100.66782 | 6614 ft | 193 kts | 164° |
| 2026-05-08 12:37 | 22.21431 | 100.67198 | 6404 ft | 187 kts | 161° |
| 2026-05-08 12:38 | 22.20193 | 100.67646 | 6289 ft | 189 kts | 160° |
| 2026-05-08 12:38 | 22.18960 | 100.68106 | 6241 ft | 187 kts | 160° |
| 2026-05-08 12:38 | 22.17738 | 100.68567 | 6189 ft | 186 kts | 160° |
| 2026-05-08 12:38 | 22.16496 | 100.69037 | 5946 ft | 191 kts | 160° |
| 2026-05-08 12:39 | 22.15244 | 100.69510 | 5682 ft | 189 kts | 160° |
| 2026-05-08 12:39 | 22.14005 | 100.69979 | 5389 ft | 188 kts | 160° |
| 2026-05-08 12:39 | 22.12778 | 100.70444 | 5113 ft | 184 kts | 160° |
| 2026-05-08 12:39 | 22.11614 | 100.70884 | 4876 ft | 173 kts | 160° |
| 2026-05-08 12:40 | 22.10528 | 100.71296 | 4627 ft | 158 kts | 161° |
| 2026-05-08 12:40 | 22.09518 | 100.71675 | 4427 ft | 150 kts | 160° |
| 2026-05-08 12:40 | 22.08524 | 100.72051 | 4226 ft | 153 kts | 160° |
| 2026-05-08 12:40 | 22.07509 | 100.72435 | 3998 ft | 156 kts | 160° |
| 2026-05-08 12:41 | 22.06487 | 100.72823 | 3751 ft | 155 kts | 161° |
| 2026-05-08 12:41 | 22.05475 | 100.73205 | 3495 ft | 153 kts | 161° |
| 2026-05-08 12:41 | 22.04473 | 100.73584 | 3253 ft | 152 kts | 161° |
| 2026-05-08 12:41 | 22.03472 | 100.73963 | 3015 ft | 153 kts | 160° |
| 2026-05-08 12:42 | 22.02468 | 100.74344 | 2766 ft | 153 kts | 160° |
| 2026-05-08 12:42 | 22.02144 | 100.74466 | 2700 ft | 152 kts | 160° |
| 2026-05-08 12:42 | 22.01561 | 100.74686 | 2559 ft | 152 kts | 160° |
| 2026-05-08 12:42 | 22.00565 | 100.75063 | 2332 ft | 152 kts | 160° |
| 2026-05-08 12:43 | 21.99569 | 100.75444 | 2098 ft | 151 kts | 161° |
| 2026-05-08 12:43 | 21.98578 | 100.75813 | 1872 ft | 151 kts | 160° |
| 2026-05-08 12:43 | 21.97638 | 100.76166 | 1816 ft | 126 kts | 161° |
| 2026-05-08 12:43 | 21.97024 | 100.76394 | 1813 ft | 49 kts | 161° |
| 2026-05-08 12:44 | 21.96969 | 100.76478 | 1812 ft | 9 kts | 68° |
| 2026-05-08 12:44 | 21.96992 | 100.76537 | 1813 ft | 8 kts | 62° |
| 2026-05-08 12:44 | 21.97041 | 100.76560 | 1815 ft | 8 kts | 355° |
| 2026-05-08 12:44 | 21.97099 | 100.76544 | 1811 ft | 10 kts | 341° |
| 2026-05-08 12:45 | 21.97181 | 100.76518 | 1813 ft | 15 kts | 343° |
| 2026-05-08 12:45 | 21.97274 | 100.76484 | 1813 ft | 15 kts | 341° |
| 2026-05-08 12:45 | 21.97378 | 100.76445 | 1810 ft | 11 kts | 340° |
| 2026-05-08 12:45 | 21.97468 | 100.76410 | 1812 ft | 16 kts | 340° |
| 2026-05-08 12:46 | 21.97587 | 100.76363 | 1807 ft | 20 kts | 340° |
| 2026-05-08 12:46 | 21.97728 | 100.76310 | 1813 ft | 21 kts | 341° |
| 2026-05-08 12:46 | 21.97802 | 100.76324 | 1810 ft | 13 kts | 70° |
| 2026-05-08 12:46 | 21.97787 | 100.76402 | 1812 ft | 11 kts | 109° |
| 2026-05-08 12:47 | 21.97772 | 100.76451 | 1814 ft | 5 kts | 108° |
| 2026-05-08 12:47 | 21.97771 | 100.76456 | 1815 ft | 0 kts | 108° |